Forside
METAR-TAF:

METAR-TAF

Lufthavne :

Nadi, Fiji

Breddekreds: 17-45S, længdekreds: 177-27E, højde: 13 m

Aktuelle vejr

Denne rapport blev lavet for 52 minutter siden, kl. 23:00 UTC
Vind 11 kt fra vest
Temperatur 28°C
Fugtighed 62%
Tryk 1012 hPa
Sigt 10 km eller mere
Nogle få skyer i en højde af 3000 ft

METAR: NFFN 202300Z 27011KT 9999 FEW030 28/20 Q1012 NOSIG

Tid: 11:52 (23:52 UTC)

Vejrudsigter

Denne rapport blev lavet for 41 minutter siden, kl. 23:11 UTC
Foreløbig gælder fra 21 på 00 UTC til 21 på 24 UTC
Vind 12 kt fra vestnordvest
Sigt 10 km eller mere
Nogle få skyer i en højde af 3000 ft
ændring
fra 21 på 04 UTC til 21 på 06 UTC
Vind 6 kt fra østsydøst
ændring
fra 21 på 22 UTC til 21 på 24 UTC
Vind 10 kt fra vestnordvest

TAF: NFFN 202311Z 2100/2124 29012KT 9999 FEW030 BECMG 2104/2106 12006KT BECMG 2122/2124 29010KT

Vejrobservationer og prognoser fra mere end 4000 lufthavne (METAR og TAF).

De gule og røde prikker repræsenterer de meteorologiske stationer.

Flyt musen over at se navnet på stationen.

Så klik over at se vejr observationer og prognoser.

At skifte det kort: Klik på de grønne knapper med et sort kors for at zoome ind; på den grønne knap med en bindestreg for at zoome ud; eller på de grønne pile for tilstødende kort.


METAR-TAF: